Strona główna
METAR-TAF:

METAR-TAF

Lotnisko :

Port lotniczy Ushuaia

Ushuaia, Argentyna

Szerokość geograficzna: 54-48S, Długość geograficzna: 068-19W, wysokość: 16 m

Aktualna obserwacja pogody

Raport powstał 1 godzina i 46 minut temu, godzina 14:00 UTC
Wiatr 5 kt od północ
Temperatura 5°C
Wilgotność 75%
Ciśnienie 982 hPa
Widzialność 10 km lub więcej
Rozproszone chmury na wysokości 4500 ft

METAR: SAWH 041400Z 36005KT 9999 SCT045 05/01 Q0982

czas: 12:46 (15:46 UTC)

Prognoza

Raport powstał 4 godziny i 46 minut temu, godzina 11:00 UTC
Prognoza ważna od 04 godzina 12 UTC do 05 godzina 12 UTC
Wiatr 5 kt od północno-północny zachód
Widzialność 10 km lub więcej
Brak chmur poniżej 1500 m i brak chmur cumulonimbus
Stopniowe zmiany
od 04 godzina 15 UTC do 04 godzina 17 UTC
Widzialność 10 km lub więcej
Rozproszone chmury na wysokości 3000 ft
Przerywane chmury na wysokości 7000 ft

TAF: SAWH 041100Z 0412/0512 34005KT CAVOK TX05/0418Z TN04/0511Z BECMG 0415/0417 9999 SCT030 BKN070

Obserwacja i prognoza pogody dla ponad 4000 lotnisk (raport METAR i TAF).

Dostępne stacje oznaczono żółtymi i czerwonymi punktami na mapie.

Najedź kursorem aby zobaczyć nazwę stacji.

Kliknij aby zobaczyć obserwacje i prognozy pogody.

Aby zmienić mapę: kliknij na zielony przycisk z czarnym krzyżykiem, aby powiększyć; na zielony przycisk z myślnikiem, aby pomniejszyć; na zielone strzałki, aby przejść do map sąsiednich.


METAR-TAF: